createdAt,value
2019-02-28T00:02:29.225Z,101616.63
2019-02-28T00:04:59.533Z,101615.52
2019-02-28T00:07:30.095Z,101608.52
2019-02-28T00:10:01.054Z,101606.91
2019-02-28T00:12:33.057Z,101609.63
2019-02-28T00:15:05.145Z,101606.19
2019-02-28T00:17:35.486Z,101615.06
2019-02-28T00:20:07.118Z,101605.80
2019-02-28T00:22:39.521Z,101611.67
2019-02-28T00:25:09.958Z,101611.26
2019-02-28T00:27:40.548Z,101598.61
2019-02-28T00:30:15.899Z,101598.61
2019-02-28T00:32:47.271Z,101603.32
2019-02-28T00:35:17.586Z,101602.80
2019-02-28T00:37:48.099Z,101596.91
2019-02-28T00:40:18.705Z,101588.39
2019-02-28T00:42:50.812Z,101588.39
2019-02-28T00:45:23.261Z,101597.28
2019-02-28T00:48:06.365Z,101585.39
2019-02-28T00:50:36.824Z,101578.25
2019-02-28T00:53:07.408Z,101581.57
2019-02-28T00:55:38.103Z,101577.39
2019-02-28T00:58:10.256Z,101581.81
2019-02-28T01:00:40.800Z,101573.95
2019-02-28T01:03:15.414Z,101578.14
2019-02-28T01:05:46.851Z,101581.50
2019-02-28T01:08:19.097Z,101578.00
2019-02-28T01:10:52.330Z,101575.78
2019-02-28T01:13:27.294Z,101573.84
2019-02-28T01:15:55.034Z,101574.93
2019-02-28T01:18:25.365Z,101564.82
2019-02-28T01:20:56.294Z,101564.69
2019-02-28T01:23:30.070Z,101563.34
2019-02-28T01:26:00.496Z,101565.84
2019-02-28T01:28:31.102Z,101565.84
2019-02-28T01:31:01.773Z,101563.00
2019-02-28T01:33:33.970Z,101562.56
2019-02-28T01:36:04.428Z,101557.50
2019-02-28T01:38:35.927Z,101564.67
2019-02-28T01:41:08.381Z,101548.41
2019-02-28T01:43:40.531Z,101548.41
2019-02-28T01:46:10.723Z,101545.50
2019-02-28T01:48:41.402Z,101548.93
2019-02-28T01:51:14.185Z,101545.41
2019-02-28T01:53:44.735Z,101540.31
2019-02-28T01:56:16.695Z,101530.23
2019-02-28T01:58:50.350Z,101527.80
2019-02-28T02:01:24.310Z,101531.32
2019-02-28T02:03:55.824Z,101528.23
2019-02-28T02:06:26.584Z,101517.19
2019-02-28T02:08:57.160Z,101519.55
2019-02-28T02:11:27.467Z,101517.70
2019-02-28T02:13:57.757Z,101518.90
2019-02-28T02:16:29.141Z,101512.16
2019-02-28T02:18:59.491Z,101506.52
2019-02-28T02:21:31.376Z,101509.25
2019-02-28T02:24:31.644Z,101505.83
2019-02-28T02:26:52.223Z,101504.84
2019-02-28T02:29:22.682Z,101503.39
2019-02-28T02:32:01.299Z,101500.75
2019-02-28T02:34:29.861Z,101496.67
2019-02-28T02:37:01.956Z,101491.91
2019-02-28T02:39:35.214Z,101494.63
2019-02-28T02:42:09.790Z,101491.28
2019-02-28T02:44:38.939Z,101490.24
2019-02-28T02:47:12.877Z,101483.98
2019-02-28T02:49:43.141Z,101480.16
2019-02-28T02:52:29.901Z,101488.98
2019-02-28T02:54:53.490Z,101484.21
2019-02-28T02:57:24.514Z,101476.53
2019-02-28T02:59:58.432Z,101476.91
2019-02-28T03:02:33.082Z,101474.80
2019-02-28T03:05:00.917Z,101471.08
2019-02-28T03:07:31.396Z,101468.08
2019-02-28T03:10:01.921Z,101464.15
2019-02-28T03:12:32.986Z,101465.03
2019-02-28T03:15:06.335Z,101464.20
2019-02-28T03:17:36.836Z,101461.85
2019-02-28T03:20:10.324Z,101463.45
2019-02-28T03:22:40.613Z,101463.82
2019-02-28T03:25:15.259Z,101460.89
2019-02-28T03:27:44.267Z,101462.37
2019-02-28T03:30:28.371Z,101463.19
2019-02-28T03:32:51.602Z,101452.64
2019-02-28T03:35:22.957Z,101450.48
2019-02-28T03:37:57.524Z,101460.07
2019-02-28T03:40:29.523Z,101448.71
2019-02-28T03:43:05.451Z,101448.44
2019-02-28T03:45:39.090Z,101448.05
2019-02-28T03:48:05.347Z,101453.98
2019-02-28T03:50:35.886Z,101440.59
2019-02-28T03:53:06.545Z,101439.12
2019-02-28T03:55:40.882Z,101440.02
2019-02-28T03:58:11.630Z,101436.12
2019-02-28T04:00:44.365Z,101428.58
2019-02-28T04:03:14.671Z,101430.80
2019-02-28T04:05:46.672Z,101427.61
2019-02-28T04:08:17.179Z,101428.57
2019-02-28T04:10:47.476Z,101422.34
2019-02-28T04:13:19.267Z,101416.00
2019-02-28T04:16:07.712Z,101416.00
2019-02-28T04:18:29.019Z,101422.01
2019-02-28T04:20:59.527Z,101430.44
2019-02-28T04:23:35.459Z,101430.44
2019-02-28T04:26:05.515Z,101424.59
2019-02-28T04:28:36.088Z,101427.50
2019-02-28T04:31:15.225Z,101426.63
2019-02-28T04:33:46.419Z,101426.23
2019-02-28T04:36:16.708Z,101429.57
2019-02-28T04:38:55.346Z,101428.11
2019-02-28T04:41:24.707Z,101422.34
2019-02-28T04:43:55.019Z,101417.75
2019-02-28T04:46:34.302Z,101422.84
2019-02-28T04:49:06.583Z,101423.22
2019-02-28T04:51:40.157Z,101422.95
2019-02-28T04:54:11.277Z,101422.84
2019-02-28T04:56:42.227Z,101428.09
2019-02-28T04:59:14.690Z,101426.53
2019-02-28T05:01:46.160Z,101425.38
2019-02-28T05:04:16.745Z,101433.18
2019-02-28T05:06:47.036Z,101430.14
2019-02-28T05:09:17.594Z,101426.85
2019-02-28T05:11:47.882Z,101429.67
2019-02-28T05:17:08.039Z,101442.05
2019-02-28T05:19:37.989Z,101439.22
2019-02-28T05:22:08.310Z,101437.86
2019-02-28T05:24:39.513Z,101432.09
2019-02-28T05:27:12.855Z,101430.91
2019-02-28T05:29:45.173Z,101428.89
2019-02-28T05:32:15.483Z,101424.80
2019-02-28T05:34:51.016Z,101421.66
2019-02-28T05:37:23.237Z,101415.91
2019-02-28T05:39:53.542Z,101415.41
2019-02-28T05:42:24.111Z,101416.58
2019-02-28T05:45:00.482Z,101418.16
2019-02-28T05:47:29.396Z,101417.97
2019-02-28T05:50:01.255Z,101412.11
2019-02-28T05:52:33.746Z,101409.66
2019-02-28T05:55:04.094Z,101403.31
2019-02-28T05:57:34.395Z,101403.31
2019-02-28T06:00:05.283Z,101402.92
2019-02-28T06:02:40.748Z,101398.23
2019-02-28T06:05:16.188Z,101406.61
2019-02-28T06:07:46.517Z,101409.35
2019-02-28T06:10:23.499Z,101412.69
2019-02-28T06:12:48.929Z,101412.19
2019-02-28T06:15:21.235Z,101417.77
2019-02-28T06:17:54.968Z,101411.20
2019-02-28T06:20:30.368Z,101408.09
2019-02-28T06:23:06.309Z,101399.60
2019-02-28T06:25:38.347Z,101406.44
2019-02-28T06:28:08.667Z,101406.52
2019-02-28T06:30:41.490Z,101410.70
2019-02-28T06:33:11.255Z,101406.61
2019-02-28T06:35:46.017Z,101408.98
2019-02-28T06:38:21.102Z,101394.35
2019-02-28T06:40:52.668Z,101403.89
2019-02-28T06:43:23.206Z,101411.31
2019-02-28T06:45:57.140Z,101418.75
2019-02-28T06:48:30.765Z,101417.38
2019-02-28T06:51:19.275Z,101417.27
2019-02-28T06:53:55.323Z,101415.50
2019-02-28T06:56:27.848Z,101417.82
2019-02-28T06:59:09.791Z,101418.59
2019-02-28T07:01:40.119Z,101416.13
2019-02-28T07:04:11.481Z,101414.54
2019-02-28T07:06:42.882Z,101405.83
2019-02-28T07:09:15.126Z,101403.35
2019-02-28T07:11:46.144Z,101404.09
2019-02-28T07:17:16.432Z,101403.80
2019-02-28T07:19:49.366Z,101406.26
2019-02-28T07:22:21.175Z,101403.45
2019-02-28T07:24:51.455Z,101404.86
2019-02-28T07:27:23.379Z,101399.42
2019-02-28T07:29:54.548Z,101398.22
2019-02-28T07:32:26.196Z,101392.30
2019-02-28T07:35:07.030Z,101400.97
2019-02-28T07:37:34.244Z,101395.61
2019-02-28T07:40:09.065Z,101392.36
2019-02-28T07:42:47.526Z,101387.38
2019-02-28T07:45:18.545Z,101383.09
2019-02-28T07:47:52.766Z,101382.42
2019-02-28T07:50:22.323Z,101374.68
2019-02-28T07:52:53.256Z,101380.05
2019-02-28T07:55:27.161Z,101388.69
2019-02-28T07:58:09.822Z,101385.14
2019-02-28T08:00:40.613Z,101391.44
2019-02-28T08:03:18.527Z,101385.05
2019-02-28T08:05:48.817Z,101375.95
2019-02-28T08:08:26.488Z,101374.44
2019-02-28T08:10:58.493Z,101373.53
2019-02-28T08:13:28.876Z,101371.36
2019-02-28T08:16:00.678Z,101367.02
2019-02-28T08:18:32.305Z,101351.96
2019-02-28T08:21:05.398Z,101345.02
2019-02-28T08:23:39.157Z,101339.11
2019-02-28T08:26:09.671Z,101333.21
2019-02-28T08:28:41.504Z,101333.18
2019-02-28T08:31:12.516Z,101328.45
2019-02-28T08:33:42.847Z,101328.00
2019-02-28T08:36:18.912Z,101324.11
2019-02-28T08:38:52.816Z,101319.34
2019-02-28T08:41:25.742Z,101313.34
2019-02-28T08:43:59.570Z,101312.25
2019-02-28T08:46:29.928Z,101312.44
2019-02-28T08:49:06.274Z,101310.20
2019-02-28T08:51:39.841Z,101304.63
2019-02-28T08:54:11.494Z,101308.72
2019-02-28T08:56:46.139Z,101301.39
2019-02-28T08:59:22.537Z,101299.33
2019-02-28T09:01:51.828Z,101291.19
2019-02-28T09:04:22.489Z,101287.34
2019-02-28T09:06:53.420Z,101297.36
2019-02-28T09:09:25.687Z,101287.41
2019-02-28T09:11:58.829Z,101288.45
2019-02-28T09:14:37.228Z,101280.69
2019-02-28T09:17:07.375Z,101286.50
2019-02-28T09:19:45.491Z,101288.24
2019-02-28T09:22:19.446Z,101281.46
2019-02-28T09:24:50.702Z,101273.07
2019-02-28T09:27:24.842Z,101278.73
2019-02-28T09:29:55.617Z,101265.48
2019-02-28T09:32:26.491Z,101270.70
2019-02-28T09:34:56.834Z,101256.95
2019-02-28T09:37:29.800Z,101265.03
2019-02-28T09:39:59.786Z,101263.80
2019-02-28T09:42:32.149Z,101260.42
2019-02-28T09:45:06.723Z,101260.73
2019-02-28T09:47:35.158Z,101256.93
2019-02-28T09:50:06.340Z,101261.04
2019-02-28T09:52:41.248Z,101267.26
2019-02-28T09:55:09.197Z,101272.91
2019-02-28T09:57:39.932Z,101259.19
2019-02-28T10:00:13.041Z,101269.41
2019-02-28T10:02:45.021Z,101259.24
2019-02-28T10:05:17.413Z,101257.82
2019-02-28T10:07:48.334Z,101250.58
2019-02-28T10:10:20.798Z,101250.58
2019-02-28T10:12:54.311Z,101250.09
2019-02-28T10:15:25.114Z,101255.77
2019-02-28T10:17:55.796Z,101253.56
2019-02-28T10:20:30.476Z,101236.42
2019-02-28T10:23:02.878Z,101227.77
2019-02-28T10:25:34.034Z,101221.20
2019-02-28T10:28:12.541Z,101237.18
2019-02-28T10:30:43.194Z,101254.81
2019-02-28T10:33:19.506Z,101257.39
2019-02-28T10:35:51.721Z,101261.84
2019-02-28T10:38:22.060Z,101261.84
2019-02-28T10:41:03.977Z,101280.68
2019-02-28T10:43:51.442Z,101280.68
2019-02-28T10:46:09.055Z,101283.63
2019-02-28T10:48:50.620Z,101305.27
2019-02-28T10:51:14.363Z,101306.86
2019-02-28T10:53:49.867Z,101310.98
2019-02-28T10:56:29.233Z,101311.82
2019-02-28T10:58:56.369Z,101303.00
2019-02-28T11:01:26.820Z,101300.38
2019-02-28T11:04:07.453Z,101305.13
2019-02-28T11:06:32.684Z,101310.88
2019-02-28T11:09:03.074Z,101316.52
2019-02-28T11:11:35.204Z,101325.77
2019-02-28T11:14:08.866Z,101314.67
2019-02-28T11:16:44.091Z,101302.33
2019-02-28T11:19:13.841Z,101304.78
2019-02-28T11:21:47.125Z,101305.59
2019-02-28T11:24:27.758Z,101292.36
2019-02-28T11:26:58.573Z,101287.50
2019-02-28T11:29:35.145Z,101280.73
2019-02-28T11:32:11.811Z,101283.66
2019-02-28T11:34:40.265Z,101274.53
2019-02-28T11:37:14.481Z,101268.55
2019-02-28T11:39:44.877Z,101280.35
2019-02-28T11:42:15.698Z,101277.08
2019-02-28T11:44:47.623Z,101272.89
2019-02-28T11:47:18.991Z,101270.82
2019-02-28T11:49:53.921Z,101289.33
2019-02-28T11:52:29.678Z,101278.16
2019-02-28T11:55:00.353Z,101275.68
2019-02-28T11:57:32.033Z,101273.33
2019-02-28T12:00:03.220Z,101278.36
2019-02-28T12:02:36.739Z,101277.95
2019-02-28T12:05:07.673Z,101271.58
2019-02-28T12:07:39.360Z,101261.31
2019-02-28T12:10:11.723Z,101265.84
2019-02-28T12:12:44.720Z,101264.31
2019-02-28T12:15:16.947Z,101275.20
2019-02-28T12:17:47.627Z,101285.86
2019-02-28T12:20:28.424Z,101277.90
2019-02-28T12:23:01.298Z,101282.19
2019-02-28T12:25:32.905Z,101285.70
2019-02-28T12:28:08.476Z,101290.06
2019-02-28T12:30:40.286Z,101289.55
2019-02-28T12:33:15.350Z,101286.95
2019-02-28T12:35:46.179Z,101289.43
2019-02-28T12:38:16.989Z,101275.72
2019-02-28T12:40:50.362Z,101270.77
2019-02-28T12:43:21.067Z,101264.53
2019-02-28T12:45:53.546Z,101263.64
2019-02-28T12:48:23.990Z,101269.53
2019-02-28T12:50:58.594Z,101263.02
2019-02-28T12:53:35.405Z,101265.23
2019-02-28T12:56:05.851Z,101266.27
2019-02-28T12:58:42.248Z,101259.81
2019-02-28T13:01:12.796Z,101257.59
2019-02-28T13:03:54.610Z,101259.36
2019-02-28T13:06:23.697Z,101257.07
2019-02-28T13:08:54.224Z,101254.55
2019-02-28T13:11:27.981Z,101254.91
2019-02-28T13:14:02.619Z,101252.25
2019-02-28T13:16:31.261Z,101257.36
2019-02-28T13:19:07.580Z,101262.53
2019-02-28T13:21:43.708Z,101261.24
2019-02-28T13:24:18.388Z,101259.12
2019-02-28T13:26:54.653Z,101254.53
2019-02-28T13:29:28.813Z,101255.25
2019-02-28T13:32:01.391Z,101251.84
2019-02-28T13:34:34.298Z,101238.05
2019-02-28T13:37:04.653Z,101238.05
2019-02-28T13:39:39.333Z,101242.19
2019-02-28T13:42:09.630Z,101248.53
2019-02-28T13:44:40.102Z,101238.03
2019-02-28T13:47:11.683Z,101240.83
2019-02-28T13:49:42.335Z,101237.52
2019-02-28T13:52:18.876Z,101239.59
2019-02-28T13:54:46.205Z,101235.88
2019-02-28T13:57:17.934Z,101246.84
2019-02-28T13:59:52.756Z,101250.79
2019-02-28T14:02:26.222Z,101268.11
2019-02-28T14:05:02.737Z,101278.29
2019-02-28T14:07:33.863Z,101281.31
2019-02-28T14:10:11.532Z,101270.05
2019-02-28T14:12:43.659Z,101289.47
2019-02-28T14:15:17.508Z,101294.66
2019-02-28T14:17:47.945Z,101307.71
2019-02-28T14:20:20.435Z,101305.27
2019-02-28T14:22:54.937Z,101306.96
2019-02-28T14:25:25.609Z,101311.28
2019-02-28T14:27:56.871Z,101321.30
2019-02-28T14:30:30.195Z,101314.34
2019-02-28T14:33:00.519Z,101305.67
2019-02-28T14:35:35.180Z,101306.31
2019-02-28T14:38:10.582Z,101307.16
2019-02-28T14:40:42.069Z,101307.44
2019-02-28T14:43:23.024Z,101308.54
2019-02-28T14:45:55.850Z,101306.38
2019-02-28T14:48:26.377Z,101298.34
2019-02-28T14:50:58.972Z,101300.73
2019-02-28T14:53:29.696Z,101298.34
2019-02-28T14:56:04.295Z,101295.67
2019-02-28T14:58:33.367Z,101298.25
2019-02-28T15:01:04.225Z,101296.15
2019-02-28T15:03:42.866Z,101286.27
2019-02-28T15:06:13.513Z,101284.48
2019-02-28T15:08:47.423Z,101273.38
2019-02-28T15:11:19.034Z,101271.90
2019-02-28T15:13:49.682Z,101269.91
2019-02-28T15:16:21.666Z,101269.91
2019-02-28T15:18:56.111Z,101271.70
2019-02-28T15:21:26.788Z,101275.64
2019-02-28T15:24:08.545Z,101274.39
2019-02-28T15:26:37.392Z,101267.55
2019-02-28T15:29:09.128Z,101264.07
2019-02-28T15:31:40.415Z,101264.36
2019-02-28T15:34:13.094Z,101259.70
2019-02-28T15:36:43.416Z,101259.70
2019-02-28T15:39:18.988Z,101269.11
2019-02-28T15:41:48.030Z,101264.34
2019-02-28T15:44:18.670Z,101257.88
2019-02-28T15:46:48.992Z,101264.67
2019-02-28T15:49:20.773Z,101251.55
2019-02-28T15:51:51.128Z,101251.55
2019-02-28T15:54:25.127Z,101255.23
2019-02-28T15:56:55.457Z,101249.75
2019-02-28T15:59:29.651Z,101241.17
2019-02-28T16:02:06.357Z,101242.02
2019-02-28T16:04:35.114Z,101242.30
2019-02-28T16:07:05.775Z,101252.86
2019-02-28T16:09:37.922Z,101252.28
2019-02-28T16:12:15.168Z,101246.54
2019-02-28T16:14:45.990Z,101237.37
2019-02-28T16:17:17.375Z,101236.34
2019-02-28T16:19:47.791Z,101232.35
2019-02-28T16:22:19.091Z,101235.10
2019-02-28T16:24:49.542Z,101221.16
2019-02-28T16:27:22.424Z,101231.25
2019-02-28T16:29:52.337Z,101224.23
2019-02-28T16:32:25.841Z,101228.82
2019-02-28T16:34:57.968Z,101223.09
2019-02-28T16:37:34.778Z,101222.12
2019-02-28T16:40:04.217Z,101228.99
2019-02-28T16:42:34.532Z,101225.95
2019-02-28T16:45:10.438Z,101228.93
2019-02-28T16:47:42.066Z,101223.77
2019-02-28T16:50:20.197Z,101221.09
2019-02-28T16:52:50.929Z,101220.13
2019-02-28T16:55:24.433Z,101214.08
2019-02-28T16:57:54.839Z,101214.08
2019-02-28T17:00:42.375Z,101212.70
2019-02-28T17:03:07.299Z,101212.15
2019-02-28T17:05:38.179Z,101204.34
2019-02-28T17:08:10.256Z,101196.14
2019-02-28T17:10:44.252Z,101199.11
2019-02-28T17:13:45.344Z,101208.58
2019-02-28T17:16:38.167Z,101200.87
2019-02-28T17:19:11.400Z,101202.56
2019-02-28T17:21:43.882Z,101210.59
2019-02-28T17:24:18.576Z,101207.27
2019-02-28T17:26:54.879Z,101207.20
2019-02-28T17:29:38.125Z,101208.02
2019-02-28T17:32:14.747Z,101212.72
2019-02-28T17:34:46.259Z,101210.97
2019-02-28T17:37:25.508Z,101213.91
2019-02-28T17:39:58.092Z,101212.16
2019-02-28T17:42:30.388Z,101208.20
2019-02-28T17:45:19.393Z,101202.13
2019-02-28T17:48:31.135Z,101216.67
2019-02-28T17:51:22.385Z,101210.25
2019-02-28T17:54:42.308Z,101213.22
2019-02-28T17:57:31.869Z,101214.13
2019-02-28T18:00:52.869Z,101211.03
2019-02-28T18:04:04.817Z,101211.34
2019-02-28T18:07:23.651Z,101210.77
2019-02-28T18:10:03.772Z,101215.72
2019-02-28T18:12:57.382Z,101207.92
2019-02-28T18:16:36.826Z,101196.90
2019-02-28T18:19:45.222Z,101193.77
2019-02-28T18:22:57.747Z,101185.05
2019-02-28T18:25:57.114Z,101181.45
2019-02-28T18:29:11.744Z,101193.31
2019-02-28T18:31:42.463Z,101198.34
2019-02-28T18:34:24.792Z,101196.59
2019-02-28T18:37:00.441Z,101200.34
2019-02-28T18:39:30.507Z,101198.86
2019-02-28T18:42:01.178Z,101198.73
2019-02-28T18:44:31.624Z,101193.16
2019-02-28T18:47:04.323Z,101185.63
2019-02-28T18:49:36.432Z,101191.84
2019-02-28T18:52:08.153Z,101177.86
2019-02-28T18:54:44.548Z,101177.86
2019-02-28T18:57:20.326Z,101166.59
2019-02-28T18:59:52.609Z,101166.59
2019-02-28T19:02:25.884Z,101166.98
2019-02-28T19:04:59.599Z,101166.98
2019-02-28T19:07:40.713Z,101164.36
2019-02-28T19:10:11.424Z,101153.69
2019-02-28T19:12:43.134Z,101154.66
2019-02-28T19:15:13.873Z,101155.09
2019-02-28T19:17:45.532Z,101147.37
2019-02-28T19:20:15.897Z,101147.37
2019-02-28T19:22:50.716Z,101165.91
2019-02-28T19:25:22.310Z,101157.73
2019-02-28T19:27:53.913Z,101161.05
2019-02-28T19:30:24.425Z,101153.75
2019-02-28T19:32:56.343Z,101157.36
2019-02-28T19:35:39.198Z,101156.95
2019-02-28T19:38:07.545Z,101152.70
2019-02-28T19:40:38.133Z,101149.30
2019-02-28T19:43:12.612Z,101154.02
2019-02-28T19:45:45.206Z,101154.93
2019-02-28T19:48:17.135Z,101147.70
2019-02-28T19:50:51.927Z,101142.68
2019-02-28T19:53:24.378Z,101146.39
2019-02-28T19:55:58.523Z,101148.38
2019-02-28T19:58:28.854Z,101139.91
2019-02-28T20:01:02.804Z,101139.64
2019-02-28T20:03:33.525Z,101141.02
2019-02-28T20:06:05.266Z,101133.33
2019-02-28T20:08:36.992Z,101131.61
2019-02-28T20:11:07.717Z,101130.16
2019-02-28T20:13:38.353Z,101122.80
2019-02-28T20:16:10.694Z,101124.41
2019-02-28T20:18:41.023Z,101124.78
2019-02-28T20:21:14.137Z,101122.13
2019-02-28T20:23:44.541Z,101121.61
2019-02-28T20:26:15.245Z,101125.77
2019-02-28T20:28:53.799Z,101115.13
2019-02-28T20:31:24.744Z,101118.80
2019-02-28T20:33:56.372Z,101119.41
2019-02-28T20:36:31.069Z,101116.27
2019-02-28T20:39:01.499Z,101110.52
2019-02-28T20:41:34.591Z,101115.61
2019-02-28T20:44:13.102Z,101113.82
2019-02-28T20:46:43.471Z,101106.91
2019-02-28T20:49:15.827Z,101114.73
2019-02-28T20:51:55.199Z,101107.05
2019-02-28T20:54:21.214Z,101106.64
2019-02-28T20:56:51.860Z,101100.70
2019-02-28T20:59:23.159Z,101098.58
2019-02-28T21:01:53.548Z,101102.90
2019-02-28T21:04:29.669Z,101106.34
2019-02-28T21:07:00.458Z,101108.91
2019-02-28T21:09:44.611Z,101108.03
2019-02-28T21:12:27.394Z,101117.55
2019-02-28T21:14:50.124Z,101107.77
2019-02-28T21:17:29.178Z,101099.66
2019-02-28T21:19:57.571Z,101107.77
2019-02-28T21:22:29.009Z,101102.42
2019-02-28T21:25:04.094Z,101102.48
2019-02-28T21:27:34.077Z,101107.76
2019-02-28T21:30:05.793Z,101105.34
2019-02-28T21:32:39.171Z,101105.13
2019-02-28T21:35:11.844Z,101111.02
2019-02-28T21:37:42.730Z,101110.03
2019-02-28T21:40:15.865Z,101108.27
2019-02-28T21:42:46.513Z,101105.97
2019-02-28T21:45:19.260Z,101104.09
2019-02-28T21:47:49.674Z,101101.06
2019-02-28T21:50:24.659Z,101093.78
2019-02-28T21:52:55.127Z,101087.34
2019-02-28T21:55:27.361Z,101087.38
2019-02-28T21:57:58.951Z,101092.90
2019-02-28T22:00:39.301Z,101084.89
2019-02-28T22:03:10.273Z,101078.12
2019-02-28T22:05:40.807Z,101078.73
2019-02-28T22:08:11.493Z,101078.77
2019-02-28T22:10:41.831Z,101075.84
2019-02-28T22:13:13.669Z,101075.84
2019-02-28T22:15:46.339Z,101066.44
2019-02-28T22:18:21.180Z,101070.20
2019-02-28T22:20:56.172Z,101067.20
2019-02-28T22:23:26.691Z,101061.20
2019-02-28T22:26:01.953Z,101054.84
2019-02-28T22:28:34.296Z,101053.19
2019-02-28T22:31:22.465Z,101057.11
2019-02-28T22:34:02.910Z,101051.58
2019-02-28T22:36:38.783Z,101050.63
2019-02-28T22:39:10.841Z,101051.84
2019-02-28T22:41:41.733Z,101046.23
2019-02-28T22:44:14.536Z,101041.59
2019-02-28T22:46:46.659Z,101040.75
2019-02-28T22:49:18.290Z,101039.06
2019-02-28T22:51:48.731Z,101036.53
2019-02-28T22:54:23.219Z,101025.48
2019-02-28T22:56:55.457Z,101028.11
2019-02-28T22:59:27.169Z,101022.63
2019-02-28T23:01:58.061Z,101022.22
2019-02-28T23:04:28.410Z,101018.92
2019-02-28T23:06:59.491Z,101019.28
2019-02-28T23:09:31.033Z,101015.91
2019-02-28T23:12:01.377Z,101024.00
2019-02-28T23:14:31.807Z,101020.16
2019-02-28T23:17:02.305Z,101015.84
2019-02-28T23:19:32.960Z,101018.78
2019-02-28T23:22:10.086Z,101015.41
2019-02-28T23:24:39.278Z,101013.66
2019-02-28T23:27:21.191Z,101014.42
2019-02-28T23:30:17.144Z,101008.42
2019-02-28T23:33:04.602Z,101010.88
2019-02-28T23:35:37.663Z,101007.00
2019-02-28T23:38:09.191Z,100998.84
2019-02-28T23:40:39.774Z,101001.00
2019-02-28T23:43:10.465Z,101002.69
2019-02-28T23:45:40.788Z,100998.37
2019-02-28T23:48:13.507Z,100996.14
2019-02-28T23:50:46.392Z,100993.11
2019-02-28T23:53:18.043Z,100994.75
2019-02-28T23:55:53.122Z,100993.48
2019-02-28T23:58:23.456Z,100984.98
